createdAt,value
2023-01-17T00:01:33.119Z,2.70
2023-01-17T00:03:59.594Z,1.60
2023-01-17T00:06:25.999Z,1.92
2023-01-17T00:08:52.441Z,1.58
2023-01-17T00:11:18.830Z,2.58
2023-01-17T00:13:45.239Z,1.90
2023-01-17T00:16:11.721Z,1.85
2023-01-17T00:18:39.537Z,1.75
2023-01-17T00:21:06.115Z,1.63
2023-01-17T00:23:32.485Z,1.63
2023-01-17T00:25:58.989Z,1.65
2023-01-17T00:28:25.922Z,1.40
2023-01-17T00:30:52.523Z,1.40
2023-01-17T00:33:19.156Z,1.30
2023-01-17T00:35:47.119Z,1.65
2023-01-17T00:38:14.225Z,1.83
2023-01-17T00:40:41.562Z,1.80
2023-01-17T00:43:09.103Z,1.80
2023-01-17T00:45:35.563Z,2.20
2023-01-17T00:48:01.986Z,2.10
2023-01-17T00:50:28.441Z,2.03
2023-01-17T00:52:56.254Z,2.05
2023-01-17T00:55:22.747Z,1.80
2023-01-17T00:57:49.172Z,2.50
2023-01-17T01:00:16.711Z,1.95
2023-01-17T01:02:43.227Z,1.70
2023-01-17T01:05:09.817Z,1.45
2023-01-17T01:07:36.216Z,1.30
2023-01-17T01:10:04.453Z,1.20
2023-01-17T01:12:30.862Z,1.38
2023-01-17T01:14:57.356Z,1.08
2023-01-17T01:17:23.742Z,1.30
2023-01-17T01:19:50.254Z,1.08
2023-01-17T01:22:16.635Z,1.08
2023-01-17T01:24:43.133Z,1.17
2023-01-17T01:27:10.915Z,0.98
2023-01-17T01:29:37.462Z,1.27
2023-01-17T01:32:04.002Z,0.95
2023-01-17T01:34:30.430Z,1.27
2023-01-17T01:36:56.805Z,0.90
2023-01-17T01:39:23.340Z,1.05
2023-01-17T01:41:49.771Z,0.88
2023-01-17T01:44:34.994Z,0.80
2023-01-17T01:47:02.844Z,1.05
2023-01-17T01:49:29.240Z,0.80
2023-01-17T01:51:56.515Z,0.73
2023-01-17T01:54:25.445Z,1.00
2023-01-17T01:56:53.664Z,0.80
2023-01-17T01:59:21.182Z,0.88
2023-01-17T02:01:48.080Z,1.00
2023-01-17T02:04:16.286Z,1.00
2023-01-17T02:06:45.724Z,1.00
2023-01-17T02:09:13.280Z,1.08
2023-01-17T02:11:40.224Z,1.17
2023-01-17T02:14:08.321Z,1.30
2023-01-17T02:16:43.900Z,1.10
2023-01-17T02:19:23.019Z,1.00
2023-01-17T02:21:56.155Z,1.50
2023-01-17T02:24:42.852Z,1.70
2023-01-17T02:27:16.017Z,1.73
2023-01-17T02:30:03.278Z,1.65
2023-01-17T02:32:39.069Z,2.42
2023-01-17T02:35:09.655Z,2.22
2023-01-17T02:37:40.459Z,2.15
2023-01-17T02:40:10.039Z,1.98
2023-01-17T02:42:39.264Z,2.55
2023-01-17T02:45:06.413Z,2.22
2023-01-17T02:47:32.858Z,1.90
2023-01-17T02:50:02.987Z,2.20
2023-01-17T02:52:47.419Z,1.90
2023-01-17T02:55:20.352Z,1.33
2023-01-17T02:57:53.222Z,1.60
2023-01-17T03:00:21.331Z,1.25
2023-01-17T03:02:53.099Z,1.50
2023-01-17T03:05:23.121Z,0.93
2023-01-17T03:07:50.111Z,1.05
2023-01-17T03:10:17.672Z,1.10
2023-01-17T03:12:44.308Z,1.02
2023-01-17T03:15:11.280Z,1.20
2023-01-17T03:17:38.472Z,1.02
2023-01-17T03:20:05.333Z,0.95
2023-01-17T03:22:33.098Z,0.90
2023-01-17T03:24:59.509Z,1.10
2023-01-17T03:27:25.962Z,0.98
2023-01-17T03:29:52.334Z,1.45
2023-01-17T03:32:18.876Z,1.48
2023-01-17T03:34:45.288Z,1.63
2023-01-17T03:37:11.832Z,2.10
2023-01-17T03:39:39.724Z,2.33
2023-01-17T03:42:06.229Z,2.17
2023-01-17T03:44:32.590Z,2.20
2023-01-17T03:46:59.101Z,2.50
2023-01-17T03:49:25.528Z,2.65
2023-01-17T03:51:52.198Z,2.50
2023-01-17T03:54:18.609Z,2.03
2023-01-17T03:56:46.323Z,2.42
2023-01-17T03:59:13.355Z,2.20
2023-01-17T04:01:40.014Z,2.20
2023-01-17T04:04:06.458Z,2.55
2023-01-17T04:06:33.007Z,2.17
2023-01-17T04:08:59.441Z,2.05
2023-01-17T04:11:25.916Z,2.55
2023-01-17T04:13:53.740Z,2.40
2023-01-17T04:16:20.443Z,2.13
2023-01-17T04:18:46.825Z,2.15
2023-01-17T04:21:13.326Z,2.30
2023-01-17T04:23:39.771Z,2.60
2023-01-17T04:26:06.289Z,2.97
2023-01-17T04:28:32.745Z,2.63
2023-01-17T04:31:00.662Z,3.33
2023-01-17T04:33:27.116Z,4.60
2023-01-17T04:35:53.608Z,6.00
2023-01-17T04:38:20.088Z,7.07
2023-01-17T04:40:46.609Z,7.20
2023-01-17T04:43:12.965Z,7.60
2023-01-17T04:45:39.381Z,8.10
2023-01-17T04:48:07.960Z,8.02
2023-01-17T04:50:34.457Z,9.18
2023-01-17T04:53:00.833Z,9.15
2023-01-17T04:55:27.241Z,8.10
2023-01-17T04:57:53.771Z,8.82
2023-01-17T05:00:22.248Z,8.40
2023-01-17T05:02:50.369Z,8.63
2023-01-17T05:05:18.201Z,8.82
2023-01-17T05:07:44.693Z,8.35
2023-01-17T05:10:11.275Z,9.20
2023-01-17T05:12:37.703Z,9.10
2023-01-17T05:15:04.697Z,8.70
2023-01-17T05:17:31.046Z,9.30
2023-01-17T05:19:57.523Z,9.82
2023-01-17T05:22:25.309Z,9.60
2023-01-17T05:24:51.795Z,9.32
2023-01-17T05:27:18.340Z,9.80
2023-01-17T05:29:44.761Z,9.57
2023-01-17T05:32:11.147Z,9.40
2023-01-17T05:34:37.758Z,9.40
2023-01-17T05:37:04.145Z,9.77
2023-01-17T05:39:32.011Z,9.45
2023-01-17T05:41:58.931Z,8.68
2023-01-17T05:44:25.421Z,9.13
2023-01-17T05:46:51.865Z,9.52
2023-01-17T05:49:18.344Z,9.32
2023-01-17T05:51:44.799Z,9.07
2023-01-17T05:54:11.243Z,9.38
2023-01-17T05:56:38.955Z,9.27
2023-01-17T05:59:05.511Z,9.20
2023-01-17T06:01:31.881Z,9.25
2023-01-17T06:03:58.357Z,8.80
2023-01-17T06:06:24.764Z,8.75
2023-01-17T06:08:51.168Z,9.68
2023-01-17T06:11:17.571Z,9.70
2023-01-17T06:13:45.385Z,9.13
2023-01-17T06:16:11.864Z,9.18
2023-01-17T06:18:38.348Z,9.65
2023-01-17T06:21:04.916Z,9.73
2023-01-17T06:23:31.498Z,8.88
2023-01-17T06:26:01.540Z,9.95
2023-01-17T06:28:28.000Z,9.50
2023-01-17T06:30:55.874Z,9.88
2023-01-17T06:33:22.401Z,9.93
2023-01-17T06:35:48.940Z,8.50
2023-01-17T06:38:15.494Z,9.98
2023-01-17T06:40:41.940Z,9.68
2023-01-17T06:43:08.420Z,9.52
2023-01-17T06:45:35.311Z,8.75
2023-01-17T06:48:03.806Z,9.45
2023-01-17T06:50:30.575Z,10.05
2023-01-17T06:52:57.577Z,10.20
2023-01-17T06:55:23.978Z,9.77
2023-01-17T06:57:50.443Z,10.43
2023-01-17T07:00:17.253Z,10.25
2023-01-17T07:02:43.719Z,10.50
2023-01-17T07:05:11.436Z,9.65
2023-01-17T07:07:37.973Z,9.85
2023-01-17T07:10:04.959Z,10.63
2023-01-17T07:12:31.417Z,10.60
2023-01-17T07:14:57.773Z,10.88
2023-01-17T07:17:24.273Z,10.40
2023-01-17T07:19:50.692Z,11.07
2023-01-17T07:22:18.524Z,10.85
2023-01-17T07:24:44.889Z,10.82
2023-01-17T07:27:11.304Z,11.18
2023-01-17T07:29:37.698Z,11.15
2023-01-17T07:32:04.231Z,10.82
2023-01-17T07:34:30.586Z,11.18
2023-01-17T07:36:57.090Z,11.35
2023-01-17T07:39:24.879Z,11.73
2023-01-17T07:41:51.374Z,12.00
2023-01-17T07:44:19.074Z,11.07
2023-01-17T07:46:45.690Z,11.88
2023-01-17T07:49:12.111Z,12.75
2023-01-17T07:51:38.549Z,12.23
2023-01-17T07:54:04.949Z,12.30
2023-01-17T07:56:33.802Z,13.32
2023-01-17T07:59:00.840Z,12.70
2023-01-17T08:01:27.640Z,12.55
2023-01-17T08:03:54.142Z,12.75
2023-01-17T08:06:21.797Z,12.82
2023-01-17T08:08:48.223Z,12.75
2023-01-17T08:11:14.940Z,12.82
2023-01-17T08:13:42.669Z,12.98
2023-01-17T08:16:09.544Z,12.13
2023-01-17T08:18:36.034Z,13.20
2023-01-17T08:21:02.569Z,13.40
2023-01-17T08:23:28.985Z,14.82
2023-01-17T08:25:59.613Z,13.77
2023-01-17T08:28:26.024Z,13.00
2023-01-17T08:30:53.775Z,13.70
2023-01-17T08:33:20.236Z,13.85
2023-01-17T08:35:53.061Z,14.32
2023-01-17T08:40:45.757Z,13.25
2023-01-17T08:43:12.285Z,12.77
2023-01-17T08:45:38.747Z,12.40
2023-01-17T08:48:06.811Z,13.73
2023-01-17T08:50:33.212Z,12.90
2023-01-17T08:53:01.299Z,13.63
2023-01-17T08:55:27.963Z,12.73
2023-01-17T08:57:55.907Z,13.88
2023-01-17T09:00:22.966Z,13.48
2023-01-17T09:02:50.809Z,13.48
2023-01-17T09:05:18.647Z,13.82
2023-01-17T09:07:45.126Z,12.75
2023-01-17T09:10:11.482Z,13.38
2023-01-17T09:12:37.961Z,13.77
2023-01-17T09:15:04.789Z,13.52
2023-01-17T09:17:31.616Z,13.63
2023-01-17T09:19:58.053Z,13.73
2023-01-17T09:22:25.847Z,14.98
2023-01-17T09:24:52.312Z,14.13
2023-01-17T09:27:18.736Z,14.90
2023-01-17T09:29:45.344Z,13.82
2023-01-17T09:32:11.883Z,15.02
2023-01-17T09:34:38.289Z,14.38
2023-01-17T09:37:04.756Z,13.90
2023-01-17T09:39:32.531Z,14.15
2023-01-17T09:42:01.690Z,13.77
2023-01-17T09:44:29.746Z,14.20
2023-01-17T09:46:59.433Z,13.80
2023-01-17T09:49:35.224Z,13.68
2023-01-17T09:52:02.024Z,12.30
2023-01-17T09:54:32.609Z,12.55
2023-01-17T09:57:01.139Z,11.90
2023-01-17T09:59:35.273Z,12.43
2023-01-17T10:02:08.201Z,12.85
2023-01-17T10:07:06.791Z,10.68
2023-01-17T10:09:40.210Z,9.68
2023-01-17T10:12:16.269Z,10.38
2023-01-17T10:14:51.155Z,10.02
2023-01-17T10:17:25.090Z,9.30
2023-01-17T10:19:59.300Z,9.68
2023-01-17T10:22:33.545Z,9.80
2023-01-17T10:25:06.759Z,9.93
2023-01-17T10:27:37.449Z,8.90
2023-01-17T10:30:13.415Z,9.68
2023-01-17T10:32:42.138Z,8.27
2023-01-17T10:35:17.306Z,8.20
2023-01-17T10:37:44.093Z,8.63
2023-01-17T10:40:13.445Z,8.77
2023-01-17T10:42:44.722Z,7.60
2023-01-17T10:45:15.207Z,7.45
2023-01-17T10:47:45.458Z,7.40
2023-01-17T10:50:12.719Z,7.80
2023-01-17T10:52:45.880Z,8.25
2023-01-17T10:55:18.733Z,7.80
2023-01-17T10:57:48.427Z,7.35
2023-01-17T11:00:23.375Z,6.82
2023-01-17T11:02:50.564Z,7.43
2023-01-17T11:05:21.382Z,8.00
2023-01-17T11:07:56.588Z,7.55
2023-01-17T11:10:33.413Z,8.38
2023-01-17T11:13:01.215Z,7.00
2023-01-17T11:15:27.712Z,7.47
2023-01-17T11:18:00.890Z,6.55
2023-01-17T11:20:29.787Z,6.13
2023-01-17T11:23:07.655Z,6.50
2023-01-17T11:25:34.518Z,6.10
2023-01-17T11:28:03.808Z,6.78
2023-01-17T11:30:30.411Z,5.97
2023-01-17T11:32:57.354Z,6.05
2023-01-17T11:35:24.840Z,7.15
2023-01-17T11:37:52.617Z,6.10
2023-01-17T11:40:21.987Z,6.00
2023-01-17T11:42:58.837Z,5.75
2023-01-17T11:45:28.029Z,6.05
2023-01-17T11:48:04.393Z,5.72
2023-01-17T11:50:30.862Z,6.25
2023-01-17T11:53:04.757Z,5.88
2023-01-17T11:57:57.482Z,6.18
2023-01-17T12:00:28.406Z,5.50
2023-01-17T12:03:10.540Z,4.53
2023-01-17T12:05:42.926Z,4.30
2023-01-17T12:08:13.622Z,4.65
2023-01-17T12:10:45.766Z,5.30
2023-01-17T12:13:17.673Z,4.70
2023-01-17T12:15:59.529Z,4.30
2023-01-17T12:18:36.005Z,4.50
2023-01-17T12:21:12.905Z,4.68
2023-01-17T12:23:44.825Z,4.57
2023-01-17T12:26:19.788Z,4.63
2023-01-17T12:29:00.799Z,5.40
2023-01-17T12:31:31.078Z,4.90
2023-01-17T12:34:02.354Z,4.82
2023-01-17T12:36:36.800Z,4.85
2023-01-17T12:39:05.702Z,4.47
2023-01-17T12:41:33.653Z,3.80
2023-01-17T12:44:00.590Z,4.70
2023-01-17T12:46:30.449Z,4.55
2023-01-17T12:49:02.737Z,4.57
2023-01-17T12:51:30.801Z,4.20
2023-01-17T12:53:59.943Z,4.45
2023-01-17T12:56:29.002Z,4.60
2023-01-17T12:58:58.793Z,3.25
2023-01-17T13:01:29.025Z,4.18
2023-01-17T13:04:06.290Z,3.67
2023-01-17T13:06:38.304Z,4.20
2023-01-17T13:09:05.104Z,4.07
2023-01-17T13:11:34.365Z,4.00
2023-01-17T13:14:01.437Z,2.97
2023-01-17T13:16:31.452Z,2.88
2023-01-17T13:19:01.127Z,2.88
2023-01-17T13:21:30.335Z,3.25
2023-01-17T13:24:09.068Z,3.35
2023-01-17T13:26:43.602Z,2.90
2023-01-17T13:29:16.594Z,3.15
2023-01-17T13:31:46.228Z,2.30
2023-01-17T13:34:27.910Z,2.53
2023-01-17T13:37:02.470Z,3.28
2023-01-17T13:39:35.824Z,3.08
2023-01-17T13:42:08.571Z,2.90
2023-01-17T13:44:36.157Z,3.45
2023-01-17T13:47:03.454Z,3.05
2023-01-17T13:49:34.324Z,3.20
2023-01-17T13:52:03.500Z,2.85
2023-01-17T13:54:30.820Z,3.45
2023-01-17T13:57:12.139Z,3.78
2023-01-17T13:59:38.824Z,3.10
2023-01-17T14:02:26.636Z,3.00
2023-01-17T14:05:06.292Z,3.05
2023-01-17T14:07:35.580Z,2.67
2023-01-17T14:10:15.669Z,3.30
2023-01-17T14:12:43.243Z,2.80
2023-01-17T14:15:18.568Z,3.22
2023-01-17T14:17:55.656Z,3.45
2023-01-17T14:20:42.766Z,3.33
2023-01-17T14:23:25.391Z,3.28
2023-01-17T14:25:52.437Z,3.75
2023-01-17T14:28:21.758Z,3.67
2023-01-17T14:30:49.367Z,3.53
2023-01-17T14:33:17.585Z,3.45
2023-01-17T14:35:49.417Z,3.60
2023-01-17T14:38:18.377Z,4.27
2023-01-17T14:40:51.314Z,3.58
2023-01-17T14:43:18.977Z,3.50
2023-01-17T14:45:45.938Z,3.55
2023-01-17T14:48:15.441Z,4.00
2023-01-17T14:50:45.595Z,3.58
2023-01-17T14:53:16.684Z,3.67
2023-01-17T14:55:51.089Z,3.13
2023-01-17T14:58:18.343Z,3.20
2023-01-17T15:00:44.920Z,3.70
2023-01-17T15:03:12.229Z,5.50
2023-01-17T15:05:40.407Z,3.65
2023-01-17T15:08:10.760Z,3.63
2023-01-17T15:10:45.551Z,3.47
2023-01-17T15:13:15.708Z,3.28
2023-01-17T15:15:42.260Z,3.20
2023-01-17T15:18:09.391Z,3.90
2023-01-17T15:20:36.944Z,4.43
2023-01-17T15:23:03.408Z,3.80
2023-01-17T15:25:30.339Z,4.03
2023-01-17T15:27:56.922Z,3.72
2023-01-17T15:30:25.000Z,3.97
2023-01-17T15:32:51.426Z,4.47
2023-01-17T15:35:18.318Z,4.72
2023-01-17T15:37:44.771Z,3.70
2023-01-17T15:40:15.907Z,4.03
2023-01-17T15:42:43.101Z,3.95
2023-01-17T15:45:11.815Z,4.22
2023-01-17T15:47:39.655Z,3.88
2023-01-17T15:50:20.953Z,3.83
2023-01-17T15:52:47.850Z,3.67
2023-01-17T15:55:14.474Z,4.40
2023-01-17T15:57:44.769Z,4.18
2023-01-17T16:00:18.896Z,4.30
2023-01-17T16:02:47.287Z,3.92
2023-01-17T16:05:33.965Z,4.10
2023-01-17T16:08:15.250Z,4.13
2023-01-17T16:10:42.196Z,4.55
2023-01-17T16:13:09.375Z,4.45
2023-01-17T16:15:36.199Z,4.75
2023-01-17T16:18:05.088Z,4.35
2023-01-17T16:20:34.749Z,4.80
2023-01-17T16:23:01.396Z,4.32
2023-01-17T16:25:28.117Z,4.28
2023-01-17T16:27:54.661Z,4.90
2023-01-17T16:30:21.260Z,4.97
2023-01-17T16:32:48.320Z,4.95
2023-01-17T16:35:16.613Z,5.32
2023-01-17T16:37:43.160Z,5.90
2023-01-17T16:40:10.314Z,6.20
2023-01-17T16:42:36.775Z,6.75
2023-01-17T16:45:03.402Z,5.85
2023-01-17T16:47:29.749Z,6.15
2023-01-17T16:49:56.137Z,6.35
2023-01-17T16:52:23.936Z,6.03
2023-01-17T16:54:50.438Z,6.05
2023-01-17T16:57:16.884Z,6.15
2023-01-17T16:59:50.650Z,5.60
2023-01-17T17:02:17.404Z,6.35
2023-01-17T17:04:43.905Z,6.45
2023-01-17T17:07:10.467Z,7.57
2023-01-17T17:09:38.232Z,8.82
2023-01-17T17:12:05.100Z,9.00
2023-01-17T17:14:31.510Z,8.38
2023-01-17T17:16:58.028Z,8.85
2023-01-17T17:19:24.453Z,11.50
2023-01-17T17:21:50.871Z,10.25
2023-01-17T17:24:17.297Z,10.50
2023-01-17T17:26:45.073Z,12.88
2023-01-17T17:29:14.482Z,13.38
2023-01-17T17:31:41.554Z,13.77
2023-01-17T17:34:09.908Z,10.75
2023-01-17T17:36:36.387Z,10.35
2023-01-17T17:39:03.939Z,9.60
2023-01-17T17:41:31.108Z,10.63
2023-01-17T17:43:59.626Z,12.60
2023-01-17T17:46:26.505Z,11.23
2023-01-17T17:48:53.205Z,12.23
2023-01-17T17:51:23.736Z,10.95
2023-01-17T17:53:50.172Z,10.32
2023-01-17T17:56:16.576Z,9.85
2023-01-17T17:58:44.853Z,9.35
2023-01-17T18:01:13.787Z,9.35
2023-01-17T18:03:40.437Z,10.32
2023-01-17T18:06:07.746Z,9.48
2023-01-17T18:08:34.615Z,9.30
2023-01-17T18:11:01.517Z,9.45
2023-01-17T18:13:28.020Z,9.43
2023-01-17T18:16:01.602Z,9.52
2023-01-17T18:18:29.472Z,10.20
2023-01-17T18:21:03.530Z,10.20
2023-01-17T18:23:30.033Z,9.80
2023-01-17T18:25:56.471Z,9.85
2023-01-17T18:28:22.927Z,9.77
2023-01-17T18:30:49.348Z,9.75
2023-01-17T18:33:15.766Z,8.57
2023-01-17T18:35:52.236Z,9.38
2023-01-17T18:38:18.746Z,8.13
2023-01-17T18:40:45.146Z,8.38
2023-01-17T18:43:11.565Z,9.05
2023-01-17T18:45:37.921Z,9.07
2023-01-17T18:48:04.783Z,9.07
2023-01-17T18:50:31.175Z,9.32
2023-01-17T18:52:59.156Z,10.73
2023-01-17T18:55:25.512Z,10.23
2023-01-17T18:57:51.960Z,13.05
2023-01-17T19:00:18.846Z,15.00
2023-01-17T19:02:47.525Z,14.45
2023-01-17T19:05:14.073Z,12.02
2023-01-17T19:07:40.436Z,25.42
2023-01-17T19:10:09.098Z,23.48
2023-01-17T19:12:35.443Z,21.40
2023-01-17T19:15:01.873Z,18.98
2023-01-17T19:17:28.300Z,15.27
2023-01-17T19:19:57.006Z,13.05
2023-01-17T19:22:23.718Z,13.18
2023-01-17T19:24:50.116Z,12.00
2023-01-17T19:27:17.925Z,10.65
2023-01-17T19:29:44.407Z,10.45
2023-01-17T19:32:10.793Z,11.73
2023-01-17T19:34:37.250Z,12.65
2023-01-17T19:37:03.640Z,11.73
2023-01-17T19:39:30.208Z,10.95
2023-01-17T19:41:56.623Z,11.60
2023-01-17T19:44:24.697Z,11.38
2023-01-17T19:46:51.056Z,11.70
2023-01-17T19:49:17.480Z,12.32
2023-01-17T19:51:43.907Z,12.68
2023-01-17T19:54:10.279Z,12.95
2023-01-17T19:56:36.674Z,14.52
2023-01-17T19:59:03.384Z,12.68
2023-01-17T20:01:32.326Z,12.70
2023-01-17T20:03:59.433Z,11.88
2023-01-17T20:06:26.723Z,12.35
2023-01-17T20:08:53.233Z,12.35
2023-01-17T20:11:20.315Z,12.60
2023-01-17T20:13:47.184Z,11.90
2023-01-17T20:16:14.446Z,12.32
2023-01-17T20:18:42.671Z,12.25
2023-01-17T20:21:10.452Z,12.05
2023-01-17T20:23:37.935Z,12.25
2023-01-17T20:26:04.802Z,13.45
2023-01-17T20:28:31.887Z,13.27
2023-01-17T20:31:03.632Z,13.15
2023-01-17T20:33:30.127Z,12.98
2023-01-17T20:36:09.585Z,13.73
2023-01-17T20:38:37.616Z,13.23
2023-01-17T20:41:04.065Z,13.85
2023-01-17T20:43:30.440Z,13.07
2023-01-17T20:45:56.909Z,12.30
2023-01-17T20:48:23.377Z,12.93
2023-01-17T20:50:49.741Z,12.40
2023-01-17T20:53:17.596Z,12.50
2023-01-17T20:55:43.977Z,11.88
2023-01-17T20:58:10.492Z,12.02
2023-01-17T21:00:36.946Z,11.75
2023-01-17T21:03:03.486Z,11.45
2023-01-17T21:05:29.830Z,10.70
2023-01-17T21:07:56.554Z,11.75
2023-01-17T21:10:24.474Z,12.10
2023-01-17T21:12:50.868Z,10.77
2023-01-17T21:15:17.295Z,10.43
2023-01-17T21:17:43.738Z,10.57
2023-01-17T21:20:10.857Z,10.63
2023-01-17T21:22:37.334Z,10.70
2023-01-17T21:25:03.921Z,11.65
2023-01-17T21:27:31.809Z,11.07
2023-01-17T21:29:58.196Z,11.07
2023-01-17T21:32:24.844Z,10.68
2023-01-17T21:34:51.266Z,11.50
2023-01-17T21:37:17.709Z,10.45
2023-01-17T21:39:44.122Z,11.73
2023-01-17T21:42:10.702Z,12.27
2023-01-17T21:44:38.445Z,11.88
2023-01-17T21:47:04.940Z,11.68
2023-01-17T21:49:31.373Z,12.85
2023-01-17T21:51:57.847Z,12.18
2023-01-17T21:54:25.143Z,12.57
2023-01-17T21:56:51.510Z,11.32
2023-01-17T21:59:18.019Z,11.65
2023-01-17T22:01:45.851Z,11.60
2023-01-17T22:04:12.295Z,12.38
2023-01-17T22:06:38.686Z,11.18
2023-01-17T22:09:05.321Z,11.07
2023-01-17T22:11:31.925Z,10.88
2023-01-17T22:13:59.298Z,11.63
2023-01-17T22:16:26.005Z,11.35
2023-01-17T22:18:53.865Z,11.52
2023-01-17T22:21:21.064Z,11.35
2023-01-17T22:23:48.014Z,11.45
2023-01-17T22:26:14.822Z,13.20
2023-01-17T22:28:41.668Z,17.95
2023-01-17T22:31:08.841Z,14.13
2023-01-17T22:33:35.444Z,19.58
2023-01-17T22:36:03.378Z,20.13
2023-01-17T22:38:29.967Z,17.73
2023-01-17T22:41:00.659Z,14.65
2023-01-17T22:43:27.131Z,13.45
2023-01-17T22:45:58.077Z,12.57
2023-01-17T22:48:24.579Z,12.23
2023-01-17T22:50:51.057Z,11.80
2023-01-17T22:53:18.797Z,11.30
2023-01-17T22:55:45.147Z,11.32
2023-01-17T22:58:11.622Z,11.70
2023-01-17T23:00:38.037Z,10.93
2023-01-17T23:03:04.704Z,11.60
2023-01-17T23:05:31.128Z,10.30
2023-01-17T23:07:57.571Z,10.77
2023-01-17T23:10:25.386Z,10.85
2023-01-17T23:12:51.839Z,10.85
2023-01-17T23:15:18.351Z,10.00
2023-01-17T23:17:44.803Z,10.32
2023-01-17T23:20:11.443Z,10.82
2023-01-17T23:22:37.893Z,11.00
2023-01-17T23:25:05.779Z,11.68
2023-01-17T23:27:34.620Z,10.85
2023-01-17T23:30:01.099Z,10.55
2023-01-17T23:32:27.586Z,10.95
2023-01-17T23:34:54.199Z,10.32
2023-01-17T23:37:20.548Z,11.20
2023-01-17T23:39:47.070Z,10.73
2023-01-17T23:42:13.442Z,10.27
2023-01-17T23:44:41.249Z,9.88
2023-01-17T23:47:07.633Z,10.10
2023-01-17T23:49:34.101Z,10.60
2023-01-17T23:52:00.504Z,10.57
2023-01-17T23:54:27.000Z,11.35
2023-01-17T23:56:53.439Z,11.27
2023-01-17T23:59:19.865Z,11.13
